sensor_id;sensor_type;location;lat;lon;timestamp;P1;durP1;ratioP1;P2;durP2;ratioP2
44270;SDS011;29963;44.594;11.368;2023-04-24T00:02:14;5.28;;;3.25;;
44270;SDS011;29963;44.594;11.368;2023-04-24T00:04:40;5.47;;;3.47;;
44270;SDS011;29963;44.594;11.368;2023-04-24T00:07:09;6.20;;;3.63;;
44270;SDS011;29963;44.594;11.368;2023-04-24T00:09:35;8.45;;;3.28;;
44270;SDS011;29963;44.594;11.368;2023-04-24T00:12:01;3.58;;;2.80;;
44270;SDS011;29963;44.594;11.368;2023-04-24T00:14:29;6.32;;;3.40;;
44270;SDS011;29963;44.594;11.368;2023-04-24T00:16:57;4.63;;;3.17;;
44270;SDS011;29963;44.594;11.368;2023-04-24T00:19:23;3.58;;;2.85;;
44270;SDS011;29963;44.594;11.368;2023-04-24T00:21:49;5.05;;;3.88;;
44270;SDS011;29963;44.594;11.368;2023-04-24T00:24:15;4.18;;;3.13;;
44270;SDS011;29963;44.594;11.368;2023-04-24T00:26:42;5.32;;;3.45;;
44270;SDS011;29963;44.594;11.368;2023-04-24T00:29:07;6.20;;;3.47;;
44270;SDS011;29963;44.594;11.368;2023-04-24T00:31:33;5.22;;;3.42;;
44270;SDS011;29963;44.594;11.368;2023-04-24T00:34:02;6.05;;;3.15;;
44270;SDS011;29963;44.594;11.368;2023-04-24T00:36:28;8.57;;;3.50;;
44270;SDS011;29963;44.594;11.368;2023-04-24T00:38:55;6.90;;;3.65;;
44270;SDS011;29963;44.594;11.368;2023-04-24T00:41:21;5.25;;;3.22;;
44270;SDS011;29963;44.594;11.368;2023-04-24T00:43:48;7.68;;;3.83;;
44270;SDS011;29963;44.594;11.368;2023-04-24T00:46:14;3.50;;;3.20;;
44270;SDS011;29963;44.594;11.368;2023-04-24T00:48:40;5.95;;;2.90;;
44270;SDS011;29963;44.594;11.368;2023-04-24T00:51:06;4.65;;;2.90;;
44270;SDS011;29963;44.594;11.368;2023-04-24T00:53:32;3.72;;;3.40;;
44270;SDS011;29963;44.594;11.368;2023-04-24T00:55:58;4.68;;;3.63;;
44270;SDS011;29963;44.594;11.368;2023-04-24T00:58:24;10.52;;;5.57;;
44270;SDS011;29963;44.594;11.368;2023-04-24T01:00:51;15.50;;;8.25;;
44270;SDS011;29963;44.594;11.368;2023-04-24T01:03:19;16.25;;;8.30;;
44270;SDS011;29963;44.594;11.368;2023-04-24T01:05:46;11.45;;;7.57;;
44270;SDS011;29963;44.594;11.368;2023-04-24T01:08:13;9.73;;;5.13;;
44270;SDS011;29963;44.594;11.368;2023-04-24T01:10:39;45.65;;;22.35;;
44270;SDS011;29963;44.594;11.368;2023-04-24T01:13:07;36.03;;;19.70;;
44270;SDS011;29963;44.594;11.368;2023-04-24T01:15:34;25.92;;;14.48;;
44270;SDS011;29963;44.594;11.368;2023-04-24T01:18:00;9.27;;;7.15;;
44270;SDS011;29963;44.594;11.368;2023-04-24T01:20:25;7.78;;;4.35;;
44270;SDS011;29963;44.594;11.368;2023-04-24T01:22:51;7.63;;;4.22;;
44270;SDS011;29963;44.594;11.368;2023-04-24T01:25:19;9.80;;;4.25;;
44270;SDS011;29963;44.594;11.368;2023-04-24T01:27:45;5.25;;;3.75;;
44270;SDS011;29963;44.594;11.368;2023-04-24T01:30:11;7.15;;;4.72;;
44270;SDS011;29963;44.594;11.368;2023-04-24T01:32:37;6.13;;;4.13;;
44270;SDS011;29963;44.594;11.368;2023-04-24T01:35:04;20.02;;;11.48;;
44270;SDS011;29963;44.594;11.368;2023-04-24T01:37:30;72.18;;;34.35;;
44270;SDS011;29963;44.594;11.368;2023-04-24T01:39:57;98.30;;;48.70;;
44270;SDS011;29963;44.594;11.368;2023-04-24T01:42:23;85.57;;;39.03;;
44270;SDS011;29963;44.594;11.368;2023-04-24T01:44:49;46.55;;;23.20;;
44270;SDS011;29963;44.594;11.368;2023-04-24T01:47:16;36.75;;;16.90;;
44270;SDS011;29963;44.594;11.368;2023-04-24T01:49:42;30.13;;;14.15;;
44270;SDS011;29963;44.594;11.368;2023-04-24T01:52:07;55.22;;;23.88;;
44270;SDS011;29963;44.594;11.368;2023-04-24T01:54:33;46.10;;;20.13;;
44270;SDS011;29963;44.594;11.368;2023-04-24T01:56:59;37.65;;;18.23;;
44270;SDS011;29963;44.594;11.368;2023-04-24T01:59:26;66.28;;;32.35;;
44270;SDS011;29963;44.594;11.368;2023-04-24T02:01:52;37.33;;;19.90;;
44270;SDS011;29963;44.594;11.368;2023-04-24T02:04:18;25.42;;;12.82;;
44270;SDS011;29963;44.594;11.368;2023-04-24T02:06:44;12.02;;;7.22;;
44270;SDS011;29963;44.594;11.368;2023-04-24T02:09:10;9.27;;;5.35;;
44270;SDS011;29963;44.594;11.368;2023-04-24T02:11:36;9.45;;;4.40;;
44270;SDS011;29963;44.594;11.368;2023-04-24T02:14:01;5.43;;;3.88;;
44270;SDS011;29963;44.594;11.368;2023-04-24T02:16:28;5.65;;;3.90;;
44270;SDS011;29963;44.594;11.368;2023-04-24T02:18:57;10.30;;;5.65;;
44270;SDS011;29963;44.594;11.368;2023-04-24T02:21:22;9.20;;;4.55;;
44270;SDS011;29963;44.594;11.368;2023-04-24T02:23:48;5.47;;;3.42;;
44270;SDS011;29963;44.594;11.368;2023-04-24T02:26:14;8.00;;;4.20;;
44270;SDS011;29963;44.594;11.368;2023-04-24T02:28:40;6.63;;;3.38;;
44270;SDS011;29963;44.594;11.368;2023-04-24T02:31:05;3.85;;;3.42;;
44270;SDS011;29963;44.594;11.368;2023-04-24T02:33:31;8.23;;;3.97;;
44270;SDS011;29963;44.594;11.368;2023-04-24T02:35:57;5.70;;;3.42;;
44270;SDS011;29963;44.594;11.368;2023-04-24T02:38:22;7.22;;;4.15;;
44270;SDS011;29963;44.594;11.368;2023-04-24T02:40:48;6.07;;;3.78;;
44270;SDS011;29963;44.594;11.368;2023-04-24T02:43:13;5.72;;;3.30;;
44270;SDS011;29963;44.594;11.368;2023-04-24T02:45:39;4.43;;;3.30;;
44270;SDS011;29963;44.594;11.368;2023-04-24T02:48:05;5.18;;;3.40;;
44270;SDS011;29963;44.594;11.368;2023-04-24T02:50:30;5.18;;;3.70;;
44270;SDS011;29963;44.594;11.368;2023-04-24T02:52:57;6.35;;;4.20;;
44270;SDS011;29963;44.594;11.368;2023-04-24T02:55:22;13.02;;;8.35;;
44270;SDS011;29963;44.594;11.368;2023-04-24T02:57:48;6.93;;;4.25;;
44270;SDS011;29963;44.594;11.368;2023-04-24T03:00:13;9.30;;;3.60;;
44270;SDS011;29963;44.594;11.368;2023-04-24T03:02:39;8.23;;;3.88;;
44270;SDS011;29963;44.594;11.368;2023-04-24T03:05:05;13.00;;;9.32;;
44270;SDS011;29963;44.594;11.368;2023-04-24T03:07:32;9.27;;;7.30;;
44270;SDS011;29963;44.594;11.368;2023-04-24T03:09:58;6.80;;;4.60;;
44270;SDS011;29963;44.594;11.368;2023-04-24T03:12:24;4.53;;;4.05;;
44270;SDS011;29963;44.594;11.368;2023-04-24T03:14:50;7.07;;;4.82;;
44270;SDS011;29963;44.594;11.368;2023-04-24T03:17:15;6.90;;;3.97;;
44270;SDS011;29963;44.594;11.368;2023-04-24T03:19:41;5.35;;;4.45;;
44270;SDS011;29963;44.594;11.368;2023-04-24T03:22:07;10.30;;;5.25;;
44270;SDS011;29963;44.594;11.368;2023-04-24T03:24:34;5.63;;;4.85;;
44270;SDS011;29963;44.594;11.368;2023-04-24T03:26:59;6.18;;;4.88;;
44270;SDS011;29963;44.594;11.368;2023-04-24T03:29:25;19.77;;;11.75;;
44270;SDS011;29963;44.594;11.368;2023-04-24T03:31:51;13.55;;;6.93;;
44270;SDS011;29963;44.594;11.368;2023-04-24T03:34:16;9.63;;;6.10;;
44270;SDS011;29963;44.594;11.368;2023-04-24T03:36:42;9.10;;;5.60;;
44270;SDS011;29963;44.594;11.368;2023-04-24T03:39:08;6.55;;;4.68;;
44270;SDS011;29963;44.594;11.368;2023-04-24T03:41:33;9.63;;;5.13;;
44270;SDS011;29963;44.594;11.368;2023-04-24T03:43:59;5.05;;;4.55;;
44270;SDS011;29963;44.594;11.368;2023-04-24T03:46:25;4.78;;;3.85;;
44270;SDS011;29963;44.594;11.368;2023-04-24T03:48:50;8.55;;;4.95;;
44270;SDS011;29963;44.594;11.368;2023-04-24T03:51:16;8.85;;;5.10;;
44270;SDS011;29963;44.594;11.368;2023-04-24T03:53:42;7.55;;;5.35;;
44270;SDS011;29963;44.594;11.368;2023-04-24T03:56:07;7.38;;;4.75;;
44270;SDS011;29963;44.594;11.368;2023-04-24T03:58:33;10.32;;;4.35;;
44270;SDS011;29963;44.594;11.368;2023-04-24T04:00:59;5.80;;;4.60;;
44270;SDS011;29963;44.594;11.368;2023-04-24T04:03:25;6.82;;;4.85;;
44270;SDS011;29963;44.594;11.368;2023-04-24T04:05:50;7.10;;;5.35;;
44270;SDS011;29963;44.594;11.368;2023-04-24T04:08:16;8.45;;;5.93;;
44270;SDS011;29963;44.594;11.368;2023-04-24T04:10:42;8.00;;;6.03;;
44270;SDS011;29963;44.594;11.368;2023-04-24T04:13:07;11.57;;;6.60;;
44270;SDS011;29963;44.594;11.368;2023-04-24T04:15:33;13.13;;;5.88;;
44270;SDS011;29963;44.594;11.368;2023-04-24T04:17:59;13.93;;;7.25;;
44270;SDS011;29963;44.594;11.368;2023-04-24T04:20:24;10.18;;;5.60;;
44270;SDS011;29963;44.594;11.368;2023-04-24T04:22:50;9.20;;;5.03;;
44270;SDS011;29963;44.594;11.368;2023-04-24T04:25:16;5.63;;;4.63;;
44270;SDS011;29963;44.594;11.368;2023-04-24T04:27:44;10.35;;;6.57;;
44270;SDS011;29963;44.594;11.368;2023-04-24T04:30:10;8.52;;;5.32;;
44270;SDS011;29963;44.594;11.368;2023-04-24T04:32:36;6.60;;;6.00;;
44270;SDS011;29963;44.594;11.368;2023-04-24T04:35:02;7.40;;;4.97;;
44270;SDS011;29963;44.594;11.368;2023-04-24T04:37:31;7.60;;;5.28;;
44270;SDS011;29963;44.594;11.368;2023-04-24T04:39:58;7.80;;;5.43;;
44270;SDS011;29963;44.594;11.368;2023-04-24T04:42:24;8.85;;;5.85;;
44270;SDS011;29963;44.594;11.368;2023-04-24T04:44:51;5.70;;;5.20;;
44270;SDS011;29963;44.594;11.368;2023-04-24T04:47:18;6.53;;;4.55;;
44270;SDS011;29963;44.594;11.368;2023-04-24T04:49:47;8.73;;;5.18;;
44270;SDS011;29963;44.594;11.368;2023-04-24T04:52:13;6.47;;;5.70;;
44270;SDS011;29963;44.594;11.368;2023-04-24T04:54:38;6.90;;;5.35;;
44270;SDS011;29963;44.594;11.368;2023-04-24T04:57:04;7.70;;;5.50;;
44270;SDS011;29963;44.594;11.368;2023-04-24T04:59:30;6.43;;;4.72;;
44270;SDS011;29963;44.594;11.368;2023-04-24T05:01:56;8.30;;;5.78;;
44270;SDS011;29963;44.594;11.368;2023-04-24T05:04:22;6.28;;;5.68;;
44270;SDS011;29963;44.594;11.368;2023-04-24T05:06:47;8.15;;;6.32;;
44270;SDS011;29963;44.594;11.368;2023-04-24T05:09:13;8.23;;;6.20;;
44270;SDS011;29963;44.594;11.368;2023-04-24T05:11:38;7.07;;;6.18;;
44270;SDS011;29963;44.594;11.368;2023-04-24T05:14:04;12.93;;;8.45;;
44270;SDS011;29963;44.594;11.368;2023-04-24T05:16:30;9.50;;;8.50;;
44270;SDS011;29963;44.594;11.368;2023-04-24T05:18:55;10.32;;;9.13;;
44270;SDS011;29963;44.594;11.368;2023-04-24T05:21:21;11.05;;;9.55;;
44270;SDS011;29963;44.594;11.368;2023-04-24T05:23:47;11.02;;;9.93;;
44270;SDS011;29963;44.594;11.368;2023-04-24T05:26:13;10.50;;;9.50;;
44270;SDS011;29963;44.594;11.368;2023-04-24T05:28:39;10.27;;;9.27;;
44270;SDS011;29963;44.594;11.368;2023-04-24T05:31:05;10.30;;;9.32;;
44270;SDS011;29963;44.594;11.368;2023-04-24T05:33:31;10.82;;;9.82;;
44270;SDS011;29963;44.594;11.368;2023-04-24T05:35:57;10.43;;;9.20;;
44270;SDS011;29963;44.594;11.368;2023-04-24T05:38:23;11.98;;;10.82;;
44270;SDS011;29963;44.594;11.368;2023-04-24T05:40:48;12.23;;;11.02;;
44270;SDS011;29963;44.594;11.368;2023-04-24T05:43:14;12.43;;;11.13;;
44270;SDS011;29963;44.594;11.368;2023-04-24T05:45:40;15.50;;;10.48;;
44270;SDS011;29963;44.594;11.368;2023-04-24T05:48:05;15.48;;;12.23;;
44270;SDS011;29963;44.594;11.368;2023-04-24T05:50:31;15.40;;;12.38;;
44270;SDS011;29963;44.594;11.368;2023-04-24T05:52:57;13.60;;;11.30;;
44270;SDS011;29963;44.594;11.368;2023-04-24T05:55:26;12.52;;;11.23;;
44270;SDS011;29963;44.594;11.368;2023-04-24T05:57:52;15.38;;;11.57;;
44270;SDS011;29963;44.594;11.368;2023-04-24T06:00:18;16.85;;;11.27;;
44270;SDS011;29963;44.594;11.368;2023-04-24T06:02:45;13.13;;;11.73;;
44270;SDS011;29963;44.594;11.368;2023-04-24T06:05:11;13.15;;;11.75;;
44270;SDS011;29963;44.594;11.368;2023-04-24T06:07:37;14.40;;;12.90;;
44270;SDS011;29963;44.594;11.368;2023-04-24T06:10:02;13.20;;;11.80;;
44270;SDS011;29963;44.594;11.368;2023-04-24T06:12:28;14.02;;;12.65;;
44270;SDS011;29963;44.594;11.368;2023-04-24T06:14:54;13.75;;;12.32;;
44270;SDS011;29963;44.594;11.368;2023-04-24T06:17:20;14.18;;;11.63;;
44270;SDS011;29963;44.594;11.368;2023-04-24T06:19:46;17.13;;;13.95;;
44270;SDS011;29963;44.594;11.368;2023-04-24T06:22:12;15.57;;;12.43;;
44270;SDS011;29963;44.594;11.368;2023-04-24T06:24:39;13.50;;;12.10;;
44270;SDS011;29963;44.594;11.368;2023-04-24T06:27:05;16.40;;;13.32;;
44270;SDS011;29963;44.594;11.368;2023-04-24T06:29:31;14.57;;;13.15;;
44270;SDS011;29963;44.594;11.368;2023-04-24T06:31:57;14.85;;;12.98;;
44270;SDS011;29963;44.594;11.368;2023-04-24T06:34:23;15.82;;;14.05;;
44270;SDS011;29963;44.594;11.368;2023-04-24T06:36:49;20.50;;;14.23;;
44270;SDS011;29963;44.594;11.368;2023-04-24T06:39:14;17.17;;;15.32;;
44270;SDS011;29963;44.594;11.368;2023-04-24T06:41:40;18.05;;;14.45;;
44270;SDS011;29963;44.594;11.368;2023-04-24T06:44:06;16.63;;;14.55;;
44270;SDS011;29963;44.594;11.368;2023-04-24T06:46:32;17.95;;;16.15;;
44270;SDS011;29963;44.594;11.368;2023-04-24T06:48:57;16.40;;;14.68;;
44270;SDS011;29963;44.594;11.368;2023-04-24T06:51:23;17.42;;;14.20;;
44270;SDS011;29963;44.594;11.368;2023-04-24T06:53:51;19.42;;;16.88;;
44270;SDS011;29963;44.594;11.368;2023-04-24T06:56:18;22.30;;;17.73;;
44270;SDS011;29963;44.594;11.368;2023-04-24T06:58:44;20.42;;;17.95;;
44270;SDS011;29963;44.594;11.368;2023-04-24T07:01:10;23.85;;;16.98;;
44270;SDS011;29963;44.594;11.368;2023-04-24T07:03:36;26.83;;;18.92;;
44270;SDS011;29963;44.594;11.368;2023-04-24T07:06:02;23.05;;;16.52;;
44270;SDS011;29963;44.594;11.368;2023-04-24T07:08:28;21.10;;;16.63;;
44270;SDS011;29963;44.594;11.368;2023-04-24T07:10:55;23.33;;;17.42;;
44270;SDS011;29963;44.594;11.368;2023-04-24T07:13:22;18.38;;;15.82;;
44270;SDS011;29963;44.594;11.368;2023-04-24T07:15:48;17.95;;;14.85;;
44270;SDS011;29963;44.594;11.368;2023-04-24T07:18:20;15.48;;;13.85;;
44270;SDS011;29963;44.594;11.368;2023-04-24T07:20:46;20.60;;;15.00;;
44270;SDS011;29963;44.594;11.368;2023-04-24T07:23:12;15.43;;;12.15;;
44270;SDS011;29963;44.594;11.368;2023-04-24T07:25:37;15.48;;;11.77;;
44270;SDS011;29963;44.594;11.368;2023-04-24T07:28:04;12.95;;;11.32;;
44270;SDS011;29963;44.594;11.368;2023-04-24T07:30:30;12.98;;;10.43;;
44270;SDS011;29963;44.594;11.368;2023-04-24T07:32:58;14.25;;;10.10;;
44270;SDS011;29963;44.594;11.368;2023-04-24T07:35:24;13.40;;;10.63;;
44270;SDS011;29963;44.594;11.368;2023-04-24T07:37:51;12.52;;;9.70;;
44270;SDS011;29963;44.594;11.368;2023-04-24T07:40:20;13.27;;;9.15;;
44270;SDS011;29963;44.594;11.368;2023-04-24T07:42:46;11.95;;;10.02;;
44270;SDS011;29963;44.594;11.368;2023-04-24T07:45:15;16.67;;;10.55;;
44270;SDS011;29963;44.594;11.368;2023-04-24T07:47:42;11.32;;;10.20;;
44270;SDS011;29963;44.594;11.368;2023-04-24T07:50:11;10.57;;;9.43;;
44270;SDS011;29963;44.594;11.368;2023-04-24T07:52:37;11.48;;;10.10;;
44270;SDS011;29963;44.594;11.368;2023-04-24T07:55:03;16.55;;;11.88;;
44270;SDS011;29963;44.594;11.368;2023-04-24T07:57:29;14.82;;;12.13;;
44270;SDS011;29963;44.594;11.368;2023-04-24T07:59:55;19.45;;;11.70;;
44270;SDS011;29963;44.594;11.368;2023-04-24T08:02:21;14.43;;;12.63;;
44270;SDS011;29963;44.594;11.368;2023-04-24T08:04:51;16.52;;;12.45;;
44270;SDS011;29963;44.594;11.368;2023-04-24T08:07:20;14.57;;;12.40;;
44270;SDS011;29963;44.594;11.368;2023-04-24T08:09:46;12.30;;;11.07;;
44270;SDS011;29963;44.594;11.368;2023-04-24T08:12:11;13.50;;;11.82;;
44270;SDS011;29963;44.594;11.368;2023-04-24T08:14:37;14.02;;;12.40;;
44270;SDS011;29963;44.594;11.368;2023-04-24T08:17:03;13.05;;;11.38;;
44270;SDS011;29963;44.594;11.368;2023-04-24T08:19:28;13.02;;;11.00;;
44270;SDS011;29963;44.594;11.368;2023-04-24T08:21:54;15.05;;;11.32;;
44270;SDS011;29963;44.594;11.368;2023-04-24T08:24:20;15.63;;;12.25;;
44270;SDS011;29963;44.594;11.368;2023-04-24T08:26:45;13.60;;;12.20;;
44270;SDS011;29963;44.594;11.368;2023-04-24T08:29:11;13.57;;;11.93;;
44270;SDS011;29963;44.594;11.368;2023-04-24T08:31:37;11.50;;;10.30;;
44270;SDS011;29963;44.594;11.368;2023-04-24T08:34:03;15.55;;;10.82;;
44270;SDS011;29963;44.594;11.368;2023-04-24T08:36:28;13.75;;;10.50;;
44270;SDS011;29963;44.594;11.368;2023-04-24T08:38:55;13.45;;;11.55;;
44270;SDS011;29963;44.594;11.368;2023-04-24T08:41:21;13.38;;;10.35;;
44270;SDS011;29963;44.594;11.368;2023-04-24T08:43:49;10.93;;;9.90;;
44270;SDS011;29963;44.594;11.368;2023-04-24T08:46:16;8.95;;;8.07;;
44270;SDS011;29963;44.594;11.368;2023-04-24T08:48:43;8.75;;;6.93;;
44270;SDS011;29963;44.594;11.368;2023-04-24T08:51:09;6.38;;;5.63;;
44270;SDS011;29963;44.594;11.368;2023-04-24T08:53:35;7.45;;;6.75;;
44270;SDS011;29963;44.594;11.368;2023-04-24T08:56:02;5.85;;;5.25;;
44270;SDS011;29963;44.594;11.368;2023-04-24T08:58:28;7.95;;;5.63;;
44270;SDS011;29963;44.594;11.368;2023-04-24T09:00:55;9.30;;;6.00;;
44270;SDS011;29963;44.594;11.368;2023-04-24T09:03:22;7.40;;;6.35;;
44270;SDS011;29963;44.594;11.368;2023-04-24T09:05:49;9.35;;;7.32;;
44270;SDS011;29963;44.594;11.368;2023-04-24T09:08:16;10.35;;;8.43;;
44270;SDS011;29963;44.594;11.368;2023-04-24T09:10:43;10.20;;;9.18;;
44270;SDS011;29963;44.594;11.368;2023-04-24T09:13:09;10.88;;;9.10;;
44270;SDS011;29963;44.594;11.368;2023-04-24T09:15:35;11.40;;;9.60;;
44270;SDS011;29963;44.594;11.368;2023-04-24T09:18:01;10.93;;;9.73;;
44270;SDS011;29963;44.594;11.368;2023-04-24T09:20:27;10.40;;;8.85;;
44270;SDS011;29963;44.594;11.368;2023-04-24T09:22:53;8.35;;;7.15;;
44270;SDS011;29963;44.594;11.368;2023-04-24T09:25:23;6.97;;;6.28;;
44270;SDS011;29963;44.594;11.368;2023-04-24T09:28:04;8.63;;;7.00;;
44270;SDS011;29963;44.594;11.368;2023-04-24T09:30:31;6.55;;;5.95;;
44270;SDS011;29963;44.594;11.368;2023-04-24T09:33:10;8.57;;;6.88;;
44270;SDS011;29963;44.594;11.368;2023-04-24T09:35:40;8.02;;;5.25;;
44270;SDS011;29963;44.594;11.368;2023-04-24T09:38:07;10.73;;;2.55;;
44270;SDS011;29963;44.594;11.368;2023-04-24T09:40:33;8.30;;;2.35;;
44270;SDS011;29963;44.594;11.368;2023-04-24T09:43:00;3.60;;;1.60;;
44270;SDS011;29963;44.594;11.368;2023-04-24T09:45:31;3.83;;;1.38;;
44270;SDS011;29963;44.594;11.368;2023-04-24T09:48:00;3.08;;;0.95;;
44270;SDS011;29963;44.594;11.368;2023-04-24T09:50:26;2.50;;;0.68;;
44270;SDS011;29963;44.594;11.368;2023-04-24T09:52:59;1.10;;;0.63;;
44270;SDS011;29963;44.594;11.368;2023-04-24T09:55:27;2.58;;;0.90;;
44270;SDS011;29963;44.594;11.368;2023-04-24T09:58:00;1.33;;;1.02;;
44270;SDS011;29963;44.594;11.368;2023-04-24T10:03:00;0.50;;;0.50;;
44270;SDS011;29963;44.594;11.368;2023-04-24T10:05:31;1.40;;;0.88;;
44270;SDS011;29963;44.594;11.368;2023-04-24T10:08:07;1.83;;;0.93;;
44270;SDS011;29963;44.594;11.368;2023-04-24T10:10:44;1.80;;;0.80;;
44270;SDS011;29963;44.594;11.368;2023-04-24T10:13:11;0.80;;;0.80;;
44270;SDS011;29963;44.594;11.368;2023-04-24T10:15:38;2.20;;;1.15;;
44270;SDS011;29963;44.594;11.368;2023-04-24T10:18:05;2.33;;;0.80;;
44270;SDS011;29963;44.594;11.368;2023-04-24T10:20:32;0.80;;;0.80;;
44270;SDS011;29963;44.594;11.368;2023-04-24T10:22:59;1.00;;;0.80;;
44270;SDS011;29963;44.594;11.368;2023-04-24T10:25:32;0.80;;;0.80;;
44270;SDS011;29963;44.594;11.368;2023-04-24T10:27:59;0.80;;;0.80;;
44270;SDS011;29963;44.594;11.368;2023-04-24T10:30:26;1.30;;;1.20;;
44270;SDS011;29963;44.594;11.368;2023-04-24T10:32:54;1.48;;;1.27;;
44270;SDS011;29963;44.594;11.368;2023-04-24T10:35:19;1.08;;;1.00;;
44270;SDS011;29963;44.594;11.368;2023-04-24T10:38:03;2.58;;;1.40;;
44270;SDS011;29963;44.594;11.368;2023-04-24T10:40:33;1.27;;;1.20;;
44270;SDS011;29963;44.594;11.368;2023-04-24T10:43:04;1.10;;;1.00;;
44270;SDS011;29963;44.594;11.368;2023-04-24T10:45:32;0.75;;;0.75;;
44270;SDS011;29963;44.594;11.368;2023-04-24T10:47:59;4.18;;;1.88;;
44270;SDS011;29963;44.594;11.368;2023-04-24T10:50:28;3.67;;;1.40;;
44270;SDS011;29963;44.594;11.368;2023-04-24T10:53:04;2.15;;;1.60;;
44270;SDS011;29963;44.594;11.368;2023-04-24T10:55:41;1.80;;;1.48;;
44270;SDS011;29963;44.594;11.368;2023-04-24T10:58:14;2.92;;;2.03;;
44270;SDS011;29963;44.594;11.368;2023-04-24T11:00:42;4.60;;;2.50;;
44270;SDS011;29963;44.594;11.368;2023-04-24T11:03:30;5.22;;;2.67;;
44270;SDS011;29963;44.594;11.368;2023-04-24T11:08:58;7.25;;;4.28;;
44270;SDS011;29963;44.594;11.368;2023-04-24T11:11:23;4.22;;;3.42;;
44270;SDS011;29963;44.594;11.368;2023-04-24T11:16:21;6.05;;;4.35;;
44270;SDS011;29963;44.594;11.368;2023-04-24T11:24:39;4.95;;;4.32;;
44270;SDS011;29963;44.594;11.368;2023-04-24T11:27:15;8.90;;;4.70;;
44270;SDS011;29963;44.594;11.368;2023-04-24T11:29:47;7.15;;;4.90;;
44270;SDS011;29963;44.594;11.368;2023-04-24T11:32:28;6.47;;;5.78;;
44270;SDS011;29963;44.594;11.368;2023-04-24T11:34:55;8.23;;;5.45;;
44270;SDS011;29963;44.594;11.368;2023-04-24T11:37:22;7.38;;;5.32;;
44270;SDS011;29963;44.594;11.368;2023-04-24T11:39:50;6.85;;;5.78;;
44270;SDS011;29963;44.594;11.368;2023-04-24T11:42:21;6.82;;;5.55;;
44270;SDS011;29963;44.594;11.368;2023-04-24T11:44:48;7.47;;;5.28;;
44270;SDS011;29963;44.594;11.368;2023-04-24T11:47:16;6.57;;;5.68;;
44270;SDS011;29963;44.594;11.368;2023-04-24T11:49:42;8.60;;;6.45;;
44270;SDS011;29963;44.594;11.368;2023-04-24T11:52:08;10.50;;;6.65;;
44270;SDS011;29963;44.594;11.368;2023-04-24T11:54:33;7.88;;;5.32;;
44270;SDS011;29963;44.594;11.368;2023-04-24T11:56:59;6.75;;;5.75;;
44270;SDS011;29963;44.594;11.368;2023-04-24T11:59:29;6.88;;;6.20;;
44270;SDS011;29963;44.594;11.368;2023-04-24T12:01:59;7.40;;;6.70;;
44270;SDS011;29963;44.594;11.368;2023-04-24T12:04:25;9.43;;;7.13;;
44270;SDS011;29963;44.594;11.368;2023-04-24T12:07:03;7.13;;;6.07;;
44270;SDS011;29963;44.594;11.368;2023-04-24T12:10:03;6.32;;;5.72;;
44270;SDS011;29963;44.594;11.368;2023-04-24T12:12:24;6.45;;;5.53;;
44270;SDS011;29963;44.594;11.368;2023-04-24T12:14:56;7.75;;;6.03;;
44270;SDS011;29963;44.594;11.368;2023-04-24T12:17:27;6.28;;;5.68;;
44270;SDS011;29963;44.594;11.368;2023-04-24T12:20:02;7.07;;;5.82;;
44270;SDS011;29963;44.594;11.368;2023-04-24T12:22:49;6.13;;;4.80;;
44270;SDS011;29963;44.594;11.368;2023-04-24T12:25:19;6.43;;;5.10;;
44270;SDS011;29963;44.594;11.368;2023-04-24T12:27:51;5.97;;;4.68;;
44270;SDS011;29963;44.594;11.368;2023-04-24T12:30:18;7.28;;;5.43;;
44270;SDS011;29963;44.594;11.368;2023-04-24T12:32:45;5.55;;;5.05;;
44270;SDS011;29963;44.594;11.368;2023-04-24T12:35:12;5.72;;;5.00;;
44270;SDS011;29963;44.594;11.368;2023-04-24T12:37:38;6.88;;;4.68;;
44270;SDS011;29963;44.594;11.368;2023-04-24T12:40:08;5.00;;;4.50;;
44270;SDS011;29963;44.594;11.368;2023-04-24T12:42:36;6.50;;;4.35;;
44270;SDS011;29963;44.594;11.368;2023-04-24T12:45:14;5.90;;;4.70;;
44270;SDS011;29963;44.594;11.368;2023-04-24T12:47:41;6.00;;;5.25;;
44270;SDS011;29963;44.594;11.368;2023-04-24T12:50:08;5.82;;;4.22;;
44270;SDS011;29963;44.594;11.368;2023-04-24T12:52:35;4.95;;;4.45;;
44270;SDS011;29963;44.594;11.368;2023-04-24T12:55:01;6.50;;;4.75;;
44270;SDS011;29963;44.594;11.368;2023-04-24T12:57:28;8.35;;;4.30;;
44270;SDS011;29963;44.594;11.368;2023-04-24T12:59:55;8.35;;;5.40;;
44270;SDS011;29963;44.594;11.368;2023-04-24T13:02:22;7.72;;;4.30;;
44270;SDS011;29963;44.594;11.368;2023-04-24T13:04:49;6.25;;;4.38;;
44270;SDS011;29963;44.594;11.368;2023-04-24T13:07:16;5.47;;;4.97;;
44270;SDS011;29963;44.594;11.368;2023-04-24T13:09:42;5.55;;;4.30;;
44270;SDS011;29963;44.594;11.368;2023-04-24T13:12:09;5.35;;;4.60;;
44270;SDS011;29963;44.594;11.368;2023-04-24T13:14:35;5.10;;;4.28;;
44270;SDS011;29963;44.594;11.368;2023-04-24T13:17:01;5.20;;;4.55;;
44270;SDS011;29963;44.594;11.368;2023-04-24T13:19:28;5.28;;;4.20;;
44270;SDS011;29963;44.594;11.368;2023-04-24T13:21:54;5.18;;;4.68;;
44270;SDS011;29963;44.594;11.368;2023-04-24T13:24:24;8.00;;;4.63;;
44270;SDS011;29963;44.594;11.368;2023-04-24T13:26:50;7.15;;;4.75;;
44270;SDS011;29963;44.594;11.368;2023-04-24T13:29:16;4.60;;;3.72;;
44270;SDS011;29963;44.594;11.368;2023-04-24T13:31:42;6.25;;;4.50;;
44270;SDS011;29963;44.594;11.368;2023-04-24T13:34:07;4.90;;;4.40;;
44270;SDS011;29963;44.594;11.368;2023-04-24T13:36:33;4.47;;;3.40;;
44270;SDS011;29963;44.594;11.368;2023-04-24T13:38:58;4.18;;;3.38;;
44270;SDS011;29963;44.594;11.368;2023-04-24T13:41:24;3.75;;;3.40;;
44270;SDS011;29963;44.594;11.368;2023-04-24T13:43:50;6.93;;;4.95;;
44270;SDS011;29963;44.594;11.368;2023-04-24T13:46:15;5.03;;;4.38;;
44270;SDS011;29963;44.594;11.368;2023-04-24T13:48:41;6.13;;;3.85;;
44270;SDS011;29963;44.594;11.368;2023-04-24T13:51:07;6.47;;;4.40;;
44270;SDS011;29963;44.594;11.368;2023-04-24T13:53:32;5.25;;;3.92;;
44270;SDS011;29963;44.594;11.368;2023-04-24T13:56:01;4.47;;;3.97;;
44270;SDS011;29963;44.594;11.368;2023-04-24T13:58:27;6.65;;;4.78;;
44270;SDS011;29963;44.594;11.368;2023-04-24T14:00:52;4.60;;;3.90;;
44270;SDS011;29963;44.594;11.368;2023-04-24T14:03:18;4.65;;;4.15;;
44270;SDS011;29963;44.594;11.368;2023-04-24T14:05:44;5.10;;;3.72;;
44270;SDS011;29963;44.594;11.368;2023-04-24T14:08:09;5.15;;;4.45;;
44270;SDS011;29963;44.594;11.368;2023-04-24T14:10:35;4.10;;;3.70;;
44270;SDS011;29963;44.594;11.368;2023-04-24T14:13:00;4.88;;;3.50;;
44270;SDS011;29963;44.594;11.368;2023-04-24T14:15:26;5.70;;;3.72;;
44270;SDS011;29963;44.594;11.368;2023-04-24T14:17:52;5.35;;;3.58;;
44270;SDS011;29963;44.594;11.368;2023-04-24T14:20:17;4.75;;;3.85;;
44270;SDS011;29963;44.594;11.368;2023-04-24T14:22:43;3.92;;;2.58;;
44270;SDS011;29963;44.594;11.368;2023-04-24T14:25:09;4.53;;;3.30;;
44270;SDS011;29963;44.594;11.368;2023-04-24T14:27:34;5.75;;;2.70;;
44270;SDS011;29963;44.594;11.368;2023-04-24T14:30:00;4.10;;;3.72;;
44270;SDS011;29963;44.594;11.368;2023-04-24T14:32:26;4.10;;;3.25;;
44270;SDS011;29963;44.594;11.368;2023-04-24T14:34:51;3.83;;;2.83;;
44270;SDS011;29963;44.594;11.368;2023-04-24T14:37:17;3.22;;;2.92;;
44270;SDS011;29963;44.594;11.368;2023-04-24T14:39:42;5.43;;;3.00;;